Time;durP1;ratioP1;P1;durP2;ratioP2;P2;SDS_P1;SDS_P2;PMS_P1;PMS_P2;Temp;Humidity;BMP_temperature;BMP_pressure;BME280_temperature;BME280_humidity;BME280_pressure;Samples;Min_cycle;Max_cycle;Signal;HPM_P1;HPM_P2
2022/06/11 00:02:19;;;;;;;5.35;3.72;;;;;;;15.46;84.89;100173.13;5075905;28;20127;-79
2022/06/11 00:04:45;;;;;;;4.13;3.70;;;;;;;15.37;85.10;100173.69;5074185;28;20111;-79
2022/06/11 00:07:21;;;;;;;5.28;3.92;;;;;;;15.34;86.31;100179.97;5092902;28;20020;-79
2022/06/11 00:09:47;;;;;;;6.00;4.30;;;;;;;15.32;87.46;100187.06;5092110;28;20038;-79
2022/06/11 00:12:14;;;;;;;5.53;3.95;;;;;;;15.19;88.40;100180.84;5074392;28;20051;-79
2022/06/11 00:14:41;;;;;;;6.28;3.75;;;;;;;15.15;89.19;100180.16;5074137;28;20046;-79
2022/06/11 00:17:09;;;;;;;4.57;3.92;;;;;;;15.12;89.75;100196.06;5092512;28;20085;-79
2022/06/11 00:19:35;;;;;;;4.20;3.75;;;;;;;15.03;90.29;100182.63;5092268;28;20031;-79
2022/06/11 00:22:01;;;;;;;4.10;3.65;;;;;;;14.95;90.66;100185.69;5074111;28;20028;-79
2022/06/11 00:24:27;;;;;;;5.72;3.72;;;;;;;14.84;91.12;100177.59;5092755;28;20050;-79
2022/06/11 00:26:55;;;;;;;5.25;4.00;;;;;;;14.78;91.59;100177.91;5092190;28;20024;-79
2022/06/11 00:29:23;;;;;;;4.45;3.53;;;;;;;14.81;91.84;100190.88;5074143;28;20531;-80
2022/06/11 00:31:49;;;;;;;4.88;3.88;;;;;;;14.74;91.88;100190.34;5073908;28;20032;-79
2022/06/11 00:34:15;;;;;;;4.10;3.70;;;;;;;14.65;92.40;100198.72;5073998;28;20106;-79
2022/06/11 00:36:43;;;;;;;5.93;3.75;;;;;;;14.56;93.18;100193.97;5073652;28;20387;-79
2022/06/11 00:39:09;;;;;;;3.80;3.40;;;;;;;14.53;93.52;100194.97;5092243;28;20032;-79
2022/06/11 00:41:38;;;;;;;4.43;4.00;;;;;;;14.46;94.57;100185.75;5092113;28;20042;-79
2022/06/11 00:44:04;;;;;;;6.25;3.65;;;;;;;14.43;94.97;100181.50;5073960;28;20107;-79
2022/06/11 00:46:39;;;;;;;4.57;3.72;;;;;;;14.39;95.65;100187.00;5091865;28;20027;-79
2022/06/11 00:49:13;;;;;;;7.55;4.18;;;;;;;14.42;95.66;100203.41;5091931;28;20031;-79
2022/06/11 00:51:39;;;;;;;4.13;3.72;;;;;;;14.40;95.54;100202.63;5091913;28;20467;-79
2022/06/11 00:54:11;;;;;;;5.82;3.95;;;;;;;14.32;96.40;100198.72;5073836;28;20111;-79
2022/06/11 00:56:43;;;;;;;6.07;3.92;;;;;;;14.30;96.71;100195.34;5092020;28;20039;-79
2022/06/11 00:59:13;;;;;;;5.57;4.13;;;;;;;14.30;97.03;100197.97;5091925;28;20034;-79
2022/06/11 01:01:39;;;;;;;6.32;3.88;;;;;;;14.19;97.23;100196.75;5091514;28;20028;-79
2022/06/11 01:04:33;;;;;;;4.25;3.78;;;;;;;14.18;97.34;100210.78;5092009;28;20096;-79
2022/06/11 01:07:09;;;;;;;5.20;3.53;;;;;;;14.09;97.66;100197.34;5073696;28;20439;-79
2022/06/11 01:09:59;;;;;;;5.25;3.70;;;;;;;14.06;97.70;100189.63;5073475;28;20380;-79
2022/06/11 01:12:48;;;;;;;6.78;3.83;;;;;;;14.05;97.81;100195.81;5091986;28;20084;-79
2022/06/11 01:15:23;;;;;;;5.28;3.97;;;;;;;14.04;97.72;100201.97;5091878;28;20110;-79
2022/06/11 01:18:09;;;;;;;5.13;3.83;;;;;;;14.02;98.17;100206.44;5091488;28;20024;-79
2022/06/11 01:21:10;;;;;;;4.13;3.13;;;;;;;13.97;98.32;100199.66;5091427;28;20077;-79
2022/06/11 01:23:56;;;;;;;5.25;3.85;;;;;;;13.97;98.47;100197.03;5091550;28;20032;-79
2022/06/11 01:26:48;;;;;;;4.85;3.63;;;;;;;13.97;98.17;100198.81;5074097;28;20028;-79
2022/06/11 01:30:04;;;;;;;3.42;2.92;;;;;;;13.89;97.92;100190.50;5096108;28;20146;-79
2022/06/11 01:32:35;;;;;;;3.67;3.13;;;;;;;13.86;98.00;100191.53;4993552;28;20066;-79
2022/06/11 01:35:00;;;;;;;5.22;3.50;;;;;;;13.84;97.91;100187.28;4993429;28;20038;-79
2022/06/11 01:38:03;;;;;;;5.18;3.72;;;;;;;13.81;98.03;100188.28;4993412;28;20046;-79
2022/06/11 01:40:42;;;;;;;5.28;3.10;;;;;;;13.80;98.15;100193.59;4935450;29;20070;-79
2022/06/11 01:43:18;;;;;;;4.40;3.30;;;;;;;13.69;98.21;100191.53;4935267;29;20035;-79
2022/06/11 01:45:46;;;;;;;3.40;3.10;;;;;;;13.65;98.72;100180.38;4915865;29;20040;-79
2022/06/11 01:48:16;;;;;;;4.78;3.50;;;;;;;13.64;98.89;100188.28;4916167;29;20047;-79
2022/06/11 01:50:52;;;;;;;4.38;3.45;;;;;;;13.60;99.21;100189.38;4915963;29;20032;-79
2022/06/11 01:53:30;;;;;;;3.50;3.20;;;;;;;13.59;99.69;100182.47;4916479;29;20516;-79
2022/06/11 01:56:10;;;;;;;3.70;3.35;;;;;;;13.59;100.00;100190.31;4915828;29;20610;-78
2022/06/11 01:58:57;;;;;;;3.63;3.23;;;;;;;13.56;100.00;100190.44;4916054;29;20115;-79
2022/06/11 02:01:28;;;;;;;5.35;3.97;;;;;;;13.54;100.00;100192.31;4916064;29;20276;-79
2022/06/11 02:04:03;;;;;;;5.75;3.33;;;;;;;13.51;100.00;100182.84;4915618;29;20084;-79
2022/06/11 02:06:53;;;;;;;4.00;3.50;;;;;;;13.47;100.00;100195.22;4915845;29;20032;-79
2022/06/11 02:09:24;;;;;;;4.05;3.33;;;;;;;13.45;100.00;100193.63;4976111;28;20033;-79
2022/06/11 02:12:15;;;;;;;3.47;3.17;;;;;;;13.44;100.00;100187.53;4992794;28;20037;-79
2022/06/11 02:15:01;;;;;;;4.13;3.40;;;;;;;13.42;100.00;100185.91;4992532;28;20034;-79
2022/06/11 02:17:31;;;;;;;5.47;3.70;;;;;;;13.43;100.00;100190.22;5072159;28;20032;-79
2022/06/11 02:20:04;;;;;;;4.25;3.35;;;;;;;13.41;100.00;100200.78;5094400;28;20024;-79
2022/06/11 02:22:42;;;;;;;3.53;3.22;;;;;;;13.36;100.00;100192.31;5094761;28;20039;-79
2022/06/11 02:25:16;;;;;;;3.88;3.10;;;;;;;13.36;100.00;100192.31;5094297;28;20024;-79
2022/06/11 02:27:44;;;;;;;3.85;3.42;;;;;;;13.38;100.00;100187.00;5076214;28;20079;-79
2022/06/11 02:30:13;;;;;;;3.72;2.80;;;;;;;13.35;100.00;100182.75;5076252;28;20031;-79
2022/06/11 02:32:40;;;;;;;3.78;3.45;;;;;;;13.36;100.00;100188.84;5094056;28;20063;-79
2022/06/11 02:35:09;;;;;;;3.60;3.30;;;;;;;13.29;100.00;100180.44;5094297;28;20024;-79
2022/06/11 02:37:42;;;;;;;4.00;3.60;;;;;;;13.27;100.00;100178.81;5093482;28;20031;-79
2022/06/11 02:40:16;;;;;;;4.85;3.42;;;;;;;13.33;100.00;100191.59;5093834;28;20483;-79
2022/06/11 02:42:43;;;;;;;3.55;3.20;;;;;;;13.34;100.00;100193.28;5094014;28;20060;-79
2022/06/11 02:45:12;;;;;;;3.67;3.10;;;;;;;13.34;100.00;100198.53;5094419;28;20062;-79
2022/06/11 02:47:41;;;;;;;5.43;3.85;;;;;;;13.29;100.00;100184.84;5094202;28;20031;-79
2022/06/11 02:50:08;;;;;;;4.07;3.05;;;;;;;13.25;100.00;100178.06;5094384;28;20036;-79
2022/06/11 02:52:34;;;;;;;6.47;3.42;;;;;;;13.34;100.00;100201.16;5075942;28;20020;-78
2022/06/11 02:54:59;;;;;;;4.40;3.40;;;;;;;13.32;100.00;100188.16;5093976;28;20032;-79
2022/06/11 02:57:29;;;;;;;3.80;3.50;;;;;;;13.30;100.00;100189.13;5093818;28;20148;-79
2022/06/11 02:59:55;;;;;;;4.63;3.65;;;;;;;13.37;100.00;100203.63;5093656;28;20122;-79
2022/06/11 03:02:22;;;;;;;4.97;3.45;;;;;;;13.37;100.00;100204.47;5093543;28;20047;-79
2022/06/11 03:04:50;;;;;;;6.78;3.55;;;;;;;13.42;100.00;100212.94;5093947;28;20375;-79
2022/06/11 03:07:16;;;;;;;9.48;4.15;;;;;;;13.36;100.00;100210.63;5093655;28;20036;-79
2022/06/11 03:09:42;;;;;;;6.97;3.80;;;;;;;13.43;100.00;100216.38;5075271;28;20028;-79
2022/06/11 03:12:10;;;;;;;7.13;4.10;;;;;;;13.46;100.00;100218.84;5075521;28;20020;-79
2022/06/11 03:14:37;;;;;;;7.75;4.22;;;;;;;13.43;100.00;100203.31;5093548;28;20035;-79
2022/06/11 03:17:04;;;;;;;4.68;3.72;;;;;;;13.47;100.00;100215.31;5093101;28;20070;-79
2022/06/11 03:19:30;;;;;;;8.40;4.15;;;;;;;13.50;100.00;100222.19;5093910;28;20080;-79
2022/06/11 03:21:56;;;;;;;5.50;4.00;;;;;;;13.52;100.00;100221.16;5093330;28;20103;-79
2022/06/11 03:24:24;;;;;;;4.55;3.92;;;;;;;13.53;100.00;100211.56;5093451;28;20032;-79
2022/06/11 03:26:50;;;;;;;5.93;3.88;;;;;;;13.57;100.00;100219.19;5074781;28;20391;-79
2022/06/11 03:29:17;;;;;;;4.65;4.07;;;;;;;13.66;100.00;100218.72;5074999;28;20035;-79
2022/06/11 03:31:44;;;;;;;3.85;3.40;;;;;;;13.69;100.00;100218.56;5092774;28;20475;-79
2022/06/11 03:34:11;;;;;;;6.45;4.10;;;;;;;13.68;100.00;100221.25;5074988;28;20027;-79
2022/06/11 03:36:36;;;;;;;4.40;4.00;;;;;;;13.74;100.00;100220.97;5093217;28;20028;-79
2022/06/11 03:39:03;;;;;;;4.38;3.88;;;;;;;13.77;100.00;100223.41;5092969;28;20024;-79
2022/06/11 03:41:29;;;;;;;6.32;4.60;;;;;;;13.91;100.00;100234.03;5070090;28;20135;-79
2022/06/11 03:43:54;;;;;;;6.60;4.47;;;;;;;14.01;100.00;100233.56;5069972;28;20507;-79
2022/06/11 03:46:20;;;;;;;4.82;3.80;;;;;;;14.08;100.00;100230.53;5070019;28;20036;-79
2022/06/11 03:48:47;;;;;;;4.57;4.05;;;;;;;14.21;100.00;100238.63;5029663;28;20041;-79
2022/06/11 03:51:13;;;;;;;4.68;3.70;;;;;;;14.31;100.00;100239.81;5030045;28;20212;-79
2022/06/11 03:53:40;;;;;;;4.50;3.67;;;;;;;14.42;100.00;100241.88;5030104;28;20129;-79
2022/06/11 03:56:08;;;;;;;5.13;3.72;;;;;;;14.57;100.00;100241.06;5013233;28;20083;-79
2022/06/11 03:58:35;;;;;;;4.97;4.20;;;;;;;14.67;100.00;100233.59;5013682;28;20033;-79
2022/06/11 04:01:15;;;;;;;4.63;4.00;;;;;;;14.85;100.00;100232.56;5013245;28;20405;-79
2022/06/11 04:04:03;;;;;;;4.75;3.72;;;;;;;15.16;99.33;100247.44;5013437;28;20046;-79
2022/06/11 04:06:33;;;;;;;4.68;4.20;;;;;;;15.40;98.58;100257.50;5029911;28;20033;-79
2022/06/11 04:09:00;;;;;;;4.57;3.95;;;;;;;15.64;97.65;100243.00;5029765;28;20033;-79
2022/06/11 04:11:26;;;;;;;5.28;4.13;;;;;;;16.02;96.20;100247.78;5031086;28;20036;-79
2022/06/11 04:13:53;;;;;;;6.60;4.28;;;;;;;16.61;93.50;100253.81;5049549;28;20045;-79
2022/06/11 04:16:31;;;;;;;4.60;3.80;;;;;;;17.33;89.92;100253.69;5050084;28;20199;-79
2022/06/11 04:19:01;;;;;;;5.05;3.72;;;;;;;18.12;86.91;100240.50;5049843;28;20501;-80
2022/06/11 04:21:28;;;;;;;4.03;3.40;;;;;;;19.20;81.47;100244.31;5049667;28;20029;-80
2022/06/11 04:23:56;;;;;;;3.67;3.30;;;;;;;21.00;71.08;100245.53;5049446;28;20025;-79
2022/06/11 04:26:27;;;;;;;4.22;3.78;;;;;;;22.76;60.92;100243.97;5073613;28;20505;-79
2022/06/11 04:28:53;;;;;;;3.28;2.97;;;;;;;24.19;55.02;100233.66;5092117;28;20071;-79
2022/06/11 04:31:19;;;;;;;3.97;3.28;;;;;;;24.62;52.02;100247.28;5074083;28;20112;-79
2022/06/11 04:33:49;;;;;;;7.22;3.17;;;;;;;24.12;53.29;100250.22;5092358;28;20089;-79
2022/06/11 04:36:17;;;;;;;4.75;3.20;;;;;;;23.60;55.15;100243.56;5092372;28;20043;-79
2022/06/11 04:38:42;;;;;;;4.13;3.20;;;;;;;23.39;55.75;100246.34;5074245;28;20475;-79
2022/06/11 04:41:08;;;;;;;8.00;3.40;;;;;;;23.26;56.68;100243.97;5091985;28;20151;-79
2022/06/11 04:43:34;;;;;;;5.35;3.53;;;;;;;23.30;56.16;100239.19;5074051;28;20395;-80
2022/06/11 04:46:01;;;;;;;3.53;2.97;;;;;;;24.01;53.30;100252.19;5091821;28;20031;-80
2022/06/11 04:48:26;;;;;;;5.03;3.05;;;;;;;25.82;48.48;100247.03;5073799;28;20475;-80
2022/06/11 04:50:52;;;;;;;5.20;3.40;;;;;;;27.78;42.52;100241.63;5091669;28;20048;-79
2022/06/11 04:53:17;;;;;;;6.50;3.50;;;;;;;28.88;39.04;100241.84;5073968;28;20043;-80
2022/06/11 04:55:43;;;;;;;3.63;3.20;;;;;;;28.68;38.37;100252.97;5091990;28;20028;-80
2022/06/11 04:58:08;;;;;;;7.00;3.38;;;;;;;27.34;40.88;100252.59;5091833;28;20024;-80
2022/06/11 05:00:34;;;;;;;4.10;3.30;;;;;;;26.32;43.55;100253.53;5092039;28;20107;-80
2022/06/11 05:03:00;;;;;;;5.65;4.07;;;;;;;25.78;44.85;100247.50;5076996;28;20105;-80
2022/06/11 05:05:25;;;;;;;4.53;3.90;;;;;;;25.57;45.66;100253.97;5095807;28;20429;-80
2022/06/11 05:07:52;;;;;;;6.53;3.58;;;;;;;25.66;45.23;100246.88;5095969;28;20133;-80
2022/06/11 05:10:20;;;;;;;5.38;3.80;;;;;;;26.55;43.83;100252.03;5095858;28;20546;-80
2022/06/11 05:12:46;;;;;;;5.75;3.90;;;;;;;28.68;38.97;100252.16;5096003;28;20028;-80
2022/06/11 05:15:11;;;;;;;4.88;3.78;;;;;;;30.44;35.16;100250.34;5095762;28;20077;-80
2022/06/11 05:17:37;;;;;;;4.10;3.35;;;;;;;31.32;33.21;100257.47;5077688;28;20063;-80
2022/06/11 05:20:04;;;;;;;3.53;3.15;;;;;;;30.77;33.75;100257.03;5077317;28;20031;-80
2022/06/11 05:22:31;;;;;;;5.63;4.13;;;;;;;29.35;35.75;100252.47;5095950;28;20032;-80
2022/06/11 05:24:56;;;;;;;6.00;3.88;;;;;;;28.40;37.66;100257.09;5095534;28;20103;-80
2022/06/11 05:27:24;;;;;;;4.85;3.95;;;;;;;27.94;38.82;100265.72;5095558;28;20122;-80
2022/06/11 05:29:56;;;;;;;5.68;4.40;;;;;;;27.66;39.66;100242.94;5095441;28;20103;-80
2022/06/11 05:32:29;;;;;;;6.22;3.85;;;;;;;27.68;39.33;100251.63;5095439;28;20114;-80
2022/06/11 05:34:56;;;;;;;5.35;4.13;;;;;;;29.36;36.32;100253.31;5077084;28;20070;-80
2022/06/11 05:37:22;;;;;;;4.57;4.10;;;;;;;31.73;32.12;100263.03;5095527;28;20028;-80
2022/06/11 05:39:48;;;;;;;7.25;4.47;;;;;;;32.65;30.11;100255.78;5077249;28;20077;-80
2022/06/11 05:42:15;;;;;;;5.00;3.95;;;;;;;31.88;30.80;100254.03;5095179;28;20426;-80
2022/06/11 05:44:41;;;;;;;5.50;4.90;;;;;;;30.40;32.32;100262.50;5095282;28;20031;-80
2022/06/11 05:47:09;;;;;;;6.57;5.45;;;;;;;29.29;34.24;100271.97;5094809;28;20085;-80
2022/06/11 05:49:39;;;;;;;5.80;4.68;;;;;;;28.55;35.91;100268.78;5095167;28;20109;-78
2022/06/11 05:52:13;;;;;;;5.90;4.35;;;;;;;28.35;37.02;100269.16;5095081;28;20032;-78
2022/06/11 05:54:40;;;;;;;6.85;4.30;;;;;;;28.25;37.52;100265.81;5094942;28;20031;-78
2022/06/11 05:57:12;;;;;;;5.35;4.20;;;;;;;28.25;37.88;100270.34;5093498;28;20469;-78
2022/06/11 05:59:43;;;;;;;7.70;4.25;;;;;;;28.21;38.05;100269.84;5094957;28;20107;-78
2022/06/11 06:02:11;;;;;;;4.50;3.95;;;;;;;27.97;38.31;100273.38;5094752;28;20035;-79
2022/06/11 06:04:38;;;;;;;4.43;3.90;;;;;;;28.32;38.58;100274.03;5095126;28;20020;-78
2022/06/11 06:07:05;;;;;;;3.90;3.50;;;;;;;28.48;38.24;100268.63;5094625;28;20028;-78
2022/06/11 06:09:31;;;;;;;5.47;3.97;;;;;;;28.58;38.26;100266.59;5095141;28;20028;-79
2022/06/11 06:11:56;;;;;;;5.32;4.03;;;;;;;28.58;38.51;100276.50;5094270;28;20024;-78
2022/06/11 06:14:22;;;;;;;5.20;3.80;;;;;;;28.95;38.37;100270.47;5094952;28;20371;-79
2022/06/11 06:16:47;;;;;;;6.35;3.72;;;;;;;29.35;37.91;100290.03;5094837;28;20394;-79
2022/06/11 06:19:13;;;;;;;4.55;3.90;;;;;;;29.78;37.00;100290.41;5094498;28;20027;-79
2022/06/11 06:21:38;;;;;;;4.68;3.58;;;;;;;30.05;36.28;100276.41;5094687;28;20497;-77
2022/06/11 06:24:05;;;;;;;5.15;3.78;;;;;;;30.46;35.54;100283.22;5094408;28;20097;-76
2022/06/11 06:26:31;;;;;;;4.38;3.88;;;;;;;31.00;34.74;100285.63;5094355;28;20463;-76
2022/06/11 06:28:57;;;;;;;5.63;3.90;;;;;;;32.88;32.44;100275.19;5094196;28;20502;-77
2022/06/11 06:31:22;;;;;;;4.05;3.72;;;;;;;35.96;27.21;100285.00;5094371;28;20028;-77
2022/06/11 06:33:48;;;;;;;6.03;3.38;;;;;;;38.96;24.13;100284.97;5094524;28;20020;-76
2022/06/11 06:36:14;;;;;;;5.40;3.38;;;;;;;41.97;20.53;100288.25;5094150;28;20476;-77
2022/06/11 06:38:42;;;;;;;3.92;3.28;;;;;;;43.82;18.28;100285.84;5094305;28;20077;-77
2022/06/11 06:41:07;;;;;;;4.93;3.58;;;;;;;45.54;16.72;100288.16;5093999;28;20077;-77
2022/06/11 06:43:33;;;;;;;4.53;3.40;;;;;;;46.61;15.39;100288.97;5094407;28;20032;-77
2022/06/11 06:46:00;;;;;;;3.58;3.28;;;;;;;47.00;15.29;100286.81;5093927;28;20027;-77
2022/06/11 06:48:26;;;;;;;4.97;3.05;;;;;;;47.76;13.67;100285.91;5094128;28;20371;-77
2022/06/11 06:50:52;;;;;;;3.30;2.70;;;;;;;47.79;13.71;100272.31;5093929;28;20025;-77
2022/06/11 06:53:18;;;;;;;4.28;3.05;;;;;;;48.78;13.51;100289.41;5093733;28;20024;-77
2022/06/11 06:55:44;;;;;;;3.65;2.80;;;;;;;49.52;13.04;100287.13;5093727;28;20035;-77
2022/06/11 06:58:09;;;;;;;4.40;2.88;;;;;;;50.38;12.29;100288.66;5093818;28;20545;-77
2022/06/11 07:00:35;;;;;;;3.88;3.00;;;;;;;51.15;11.61;100281.59;5093971;28;20161;-77
2022/06/11 07:03:01;;;;;;;3.22;2.70;;;;;;;51.78;11.06;100279.19;5093471;28;20079;-77
2022/06/11 07:05:26;;;;;;;3.28;2.50;;;;;;;52.22;10.98;100279.88;5093618;28;20023;-77
2022/06/11 07:07:53;;;;;;;2.50;2.25;;;;;;;52.52;10.22;100289.81;5093438;28;20117;-77
2022/06/11 07:10:20;;;;;;;2.80;2.50;;;;;;;52.75;10.07;100281.16;5093184;28;20032;-77
2022/06/11 07:12:46;;;;;;;3.13;2.20;;;;;;;52.64;9.79;100280.78;5093902;28;20039;-77
2022/06/11 07:15:11;;;;;;;6.78;2.35;;;;;;;52.38;10.21;100276.19;5093243;28;20028;-77
2022/06/11 07:17:45;;;;;;;3.72;2.85;;;;;;;52.43;10.29;100268.75;5093488;28;20395;-77
2022/06/11 07:20:15;;;;;;;2.67;2.33;;;;;;;52.70;9.77;100273.84;5093255;28;20471;-78
2022/06/11 07:22:57;;;;;;;3.58;2.63;;;;;;;53.10;10.15;100274.19;5093629;28;20043;-77
2022/06/11 07:25:23;;;;;;;2.30;2.10;;;;;;;53.28;9.99;100282.38;5074594;28;20122;-77
2022/06/11 07:27:56;;;;;;;3.10;2.55;;;;;;;53.77;9.10;100263.78;5093395;28;20031;-78
2022/06/11 07:30:25;;;;;;;3.40;2.20;;;;;;;54.06;9.55;100278.69;5093137;28;20464;-77
2022/06/11 07:33:05;;;;;;;2.83;2.10;;;;;;;54.28;8.40;100277.41;5093110;28;20032;-77
2022/06/11 07:35:32;;;;;;;3.58;2.17;;;;;;;54.06;7.67;100281.47;5074830;28;20364;-77
2022/06/11 07:37:57;;;;;;;2.08;1.90;;;;;;;53.80;8.53;100282.59;5093183;28;20077;-77
2022/06/11 07:40:24;;;;;;;2.25;2.10;;;;;;;53.58;8.92;100278.28;5093327;28;20036;-77
2022/06/11 07:42:50;;;;;;;2.80;2.20;;;;;;;53.28;8.71;100277.63;5093033;28;20059;-77
2022/06/11 07:45:16;;;;;;;3.17;2.10;;;;;;;53.99;8.61;100270.13;5092740;28;20054;-77
2022/06/11 07:47:53;;;;;;;2.10;1.90;;;;;;;54.54;7.83;100269.50;5092986;28;20089;-77
2022/06/11 07:50:22;;;;;;;2.88;1.80;;;;;;;54.55;7.88;100273.09;5091251;28;20109;-77
2022/06/11 07:52:48;;;;;;;2.25;1.77;;;;;;;54.94;7.40;100270.66;5089872;28;20024;-77
2022/06/11 07:55:14;;;;;;;2.80;2.22;;;;;;;54.37;8.24;100278.13;5092478;28;20028;-77
2022/06/11 07:57:39;;;;;;;2.85;2.20;;;;;;;54.25;8.58;100273.38;5092801;28;20055;-77
2022/06/11 08:00:08;;;;;;;2.58;2.08;;;;;;;54.06;8.89;100265.56;5092510;28;20546;-77
2022/06/11 08:02:34;;;;;;;2.72;2.42;;;;;;;53.88;8.94;100266.16;5092331;28;20046;-77
2022/06/11 08:04:59;;;;;;;2.92;2.35;;;;;;;54.19;8.17;100262.75;5092528;28;20024;-77
2022/06/11 08:07:27;;;;;;;2.45;2.10;;;;;;;53.66;8.00;100271.00;5092662;28;20386;-77
2022/06/11 08:09:53;;;;;;;3.70;2.10;;;;;;;53.56;8.26;100269.47;5092669;28;20020;-77
2022/06/11 08:12:19;;;;;;;2.10;1.95;;;;;;;52.91;8.08;100265.50;5074060;28;20372;-77
2022/06/11 08:14:44;;;;;;;2.88;1.98;;;;;;;51.30;9.23;100260.88;5091654;28;20038;-77
2022/06/11 08:17:10;;;;;;;3.17;2.05;;;;;;;46.68;11.62;100265.47;5091823;28;20478;-77
2022/06/11 08:19:36;;;;;;;4.47;2.10;;;;;;;42.66;14.46;100247.03;5091699;28;20028;-76
2022/06/11 08:22:02;;;;;;;2.67;2.17;;;;;;;39.75;16.48;100235.97;5092218;28;20039;-76
2022/06/11 08:24:27;;;;;;;4.13;2.10;;;;;;;37.70;17.87;100243.78;5092332;28;20027;-76
2022/06/11 08:26:53;;;;;;;3.97;1.85;;;;;;;36.08;20.69;100243.63;5092131;28;20035;-76
2022/06/11 08:29:18;;;;;;;4.03;1.98;;;;;;;34.88;21.87;100247.13;5091968;28;20066;-76
2022/06/11 08:31:44;;;;;;;2.10;1.90;;;;;;;33.85;22.85;100241.53;5091865;28;20028;-76
2022/06/11 08:34:09;;;;;;;4.15;2.10;;;;;;;33.17;24.11;100233.59;5092093;28;20023;-76
2022/06/11 08:36:35;;;;;;;2.55;2.00;;;;;;;32.49;23.97;100230.84;5091272;28;20078;-79
2022/06/11 08:39:00;;;;;;;2.83;2.55;;;;;;;31.91;24.95;100237.50;5092267;28;20100;-79
2022/06/11 08:41:35;;;;;;;3.53;2.00;;;;;;;31.46;25.72;100242.25;5092058;28;20099;-79
2022/06/11 08:44:14;;;;;;;3.40;2.25;;;;;;;31.12;26.31;100234.84;5091663;28;20498;-76
2022/06/11 08:46:43;;;;;;;2.22;1.88;;;;;;;30.90;26.79;100225.94;5091953;28;20028;-79
2022/06/11 08:49:13;;;;;;;2.95;2.28;;;;;;;30.73;26.88;100241.47;5093006;28;20024;-78
2022/06/11 08:51:41;;;;;;;3.70;2.15;;;;;;;30.40;26.28;100235.63;5091969;28;20025;-78
2022/06/11 08:54:11;;;;;;;3.58;2.10;;;;;;;30.13;27.02;100229.84;5091548;28;20103;-78
2022/06/11 08:56:45;;;;;;;3.80;2.55;;;;;;;29.81;26.88;100236.34;5091853;28;20028;-78
2022/06/11 08:59:32;;;;;;;4.43;2.00;;;;;;;29.53;27.57;100244.13;5091567;28;20479;-78
2022/06/11 09:02:06;;;;;;;2.88;1.98;;;;;;;29.21;28.05;100240.66;5091854;28;20035;-78
2022/06/11 09:05:10;;;;;;;3.85;2.33;;;;;;;28.91;28.10;100241.47;5092049;28;20036;-77
2022/06/11 09:08:09;;;;;;;2.95;2.10;;;;;;;28.49;28.75;100240.00;4989908;28;20034;-78
2022/06/11 09:10:37;;;;;;;2.30;1.85;;;;;;;28.09;29.28;100239.06;4989669;28;20642;-77
2022/06/11 09:13:03;;;;;;;4.50;2.33;;;;;;;28.01;29.96;100233.72;4989671;28;20049;-77
2022/06/11 09:15:45;;;;;;;5.90;2.30;;;;;;;27.77;30.26;100229.22;4989167;28;20039;-77
2022/06/11 09:18:13;;;;;;;4.22;2.08;;;;;;;27.67;30.15;100232.06;4989446;28;20093;-77
2022/06/11 09:21:14;;;;;;;3.72;2.20;;;;;;;27.72;30.64;100231.56;4989874;28;20037;-77
2022/06/11 09:23:51;;;;;;;3.92;2.10;;;;;;;27.75;30.48;100233.94;4931799;29;20079;-77
2022/06/11 09:26:36;;;;;;;3.20;2.08;;;;;;;27.48;30.71;100217.19;4931646;29;20050;-77
2022/06/11 09:29:10;;;;;;;5.93;2.75;;;;;;;27.35;31.72;100215.00;4932062;29;20075;-77
2022/06/11 09:32:00;;;;;;;3.90;2.38;;;;;;;27.46;31.63;100218.34;4931888;29;20139;-77
2022/06/11 09:34:37;;;;;;;5.47;2.30;;;;;;;27.49;31.30;100223.38;4931555;29;20054;-77
2022/06/11 09:37:26;;;;;;;4.22;2.25;;;;;;;27.34;31.54;100223.19;4931765;29;20050;-77
2022/06/11 09:40:18;;;;;;;4.20;2.00;;;;;;;27.41;32.38;100218.84;4931901;29;20031;-77
2022/06/11 09:42:52;;;;;;;3.10;2.20;;;;;;;27.51;31.70;100218.69;4931909;29;20043;-77
2022/06/11 09:45:25;;;;;;;3.10;2.20;;;;;;;27.40;31.76;100214.50;5023711;28;20038;-77
2022/06/11 09:48:11;;;;;;;3.83;2.10;;;;;;;27.24;33.26;100217.16;5030230;28;20052;-77
2022/06/11 09:50:43;;;;;;;3.50;2.00;;;;;;;27.13;32.32;100226.34;5032573;28;20523;-77
2022/06/11 09:53:26;;;;;;;3.08;2.00;;;;;;;27.11;33.49;100217.66;5032019;28;20407;-77
2022/06/11 09:56:09;;;;;;;6.15;2.05;;;;;;;27.07;33.53;100219.78;5032433;28;20037;-77
2022/06/11 09:58:54;;;;;;;4.15;2.38;;;;;;;27.02;33.00;100221.28;5032436;28;20049;-77
2022/06/11 10:01:31;;;;;;;4.85;2.08;;;;;;;26.86;32.45;100204.19;5094432;28;20382;-77
2022/06/11 10:04:10;;;;;;;7.05;2.53;;;;;;;26.97;33.49;100207.53;5094977;28;20048;-77
2022/06/11 10:06:41;;;;;;;3.93;2.30;;;;;;;27.17;32.54;100218.81;5094782;28;20388;-77
2022/06/11 10:09:16;;;;;;;3.33;2.17;;;;;;;27.18;32.45;100207.97;5094528;28;20651;-77
2022/06/11 10:12:27;;;;;;;3.13;1.90;;;;;;;27.20;32.65;100202.47;5094652;28;20055;-77
2022/06/11 10:15:10;;;;;;;2.63;2.33;;;;;;;27.21;31.96;100198.78;4992849;28;20034;-77
2022/06/11 10:18:13;;;;;;;4.70;2.17;;;;;;;27.29;31.34;100198.78;4992492;28;20074;-77
2022/06/11 10:20:44;;;;;;;3.80;2.20;;;;;;;27.27;31.51;100190.94;4992493;28;20029;-77
2022/06/11 10:23:25;;;;;;;2.42;1.95;;;;;;;27.35;32.13;100208.84;4992251;28;20046;-77
2022/06/11 10:25:56;;;;;;;4.05;1.60;;;;;;;27.30;30.95;100208.47;4992339;28;20026;-77
2022/06/11 10:28:24;;;;;;;1.95;1.80;;;;;;;27.33;30.87;100205.47;4992074;28;20476;-77
2022/06/11 10:30:53;;;;;;;3.00;1.85;;;;;;;27.38;30.27;100208.47;4992448;28;20134;-77
2022/06/11 10:33:32;;;;;;;2.90;1.73;;;;;;;27.56;30.74;100197.63;4992204;28;20465;-77
2022/06/11 10:36:06;;;;;;;1.95;1.70;;;;;;;27.58;29.63;100185.75;4992394;28;20585;-77
2022/06/11 10:38:51;;;;;;;5.20;2.10;;;;;;;27.57;29.95;100188.59;4992263;28;20501;-77
2022/06/11 10:41:27;;;;;;;4.05;1.58;;;;;;;27.67;29.30;100199.13;4992064;28;20081;-77
2022/06/11 10:44:03;;;;;;;1.70;1.45;;;;;;;27.84;28.89;100201.63;4992246;28;20038;-77
2022/06/11 10:46:29;;;;;;;1.60;1.50;;;;;;;27.96;28.64;100198.59;4991913;28;20121;-77
2022/06/11 10:48:54;;;;;;;3.80;1.95;;;;;;;27.89;28.88;100197.59;5052438;28;20115;-77
2022/06/11 10:51:32;;;;;;;1.80;1.40;;;;;;;27.84;29.09;100198.94;5093694;28;20387;-77
2022/06/11 10:54:19;;;;;;;3.08;1.60;;;;;;;27.60;28.75;100191.78;5093976;28;20024;-77
2022/06/11 10:56:49;;;;;;;4.43;1.27;;;;;;;27.41;29.02;100194.78;5093918;28;20391;-77
2022/06/11 10:59:35;;;;;;;3.05;1.50;;;;;;;27.19;29.00;100182.91;5092643;28;20497;-77
2022/06/11 11:02:13;;;;;;;3.50;1.65;;;;;;;27.01;29.40;100188.38;5093628;28;20023;-76
2022/06/11 11:04:53;;;;;;;3.05;1.90;;;;;;;26.64;30.27;100179.94;5093733;28;20031;-76
2022/06/11 11:07:20;;;;;;;4.10;1.75;;;;;;;26.54;30.77;100188.06;5093358;28;20027;-77
2022/06/11 11:09:46;;;;;;;2.67;1.70;;;;;;;26.42;30.55;100178.63;5093586;28;20032;-77
2022/06/11 11:12:23;;;;;;;1.60;1.48;;;;;;;26.49;31.15;100171.69;5093556;28;20038;-77
2022/06/11 11:15:00;;;;;;;2.15;1.40;;;;;;;26.62;30.62;100178.22;5093626;28;20067;-77
2022/06/11 11:17:29;;;;;;;4.07;2.08;;;;;;;26.65;30.79;100170.91;5093393;28;20032;-77
2022/06/11 11:20:32;;;;;;;3.53;1.95;;;;;;;26.61;31.77;100171.22;5093530;28;20058;-79
2022/06/11 11:23:10;;;;;;;3.90;1.65;;;;;;;26.62;30.98;100174.72;5093328;28;20475;-76
2022/06/11 11:25:49;;;;;;;2.10;1.35;;;;;;;26.81;31.73;100177.13;5075056;28;20032;-76
2022/06/11 11:28:29;;;;;;;3.17;1.60;;;;;;;27.05;31.25;100168.31;5093149;28;20044;-76
2022/06/11 11:30:59;;;;;;;2.45;1.70;;;;;;;27.07;30.73;100162.81;5093249;28;20050;-76
2022/06/11 11:33:32;;;;;;;2.95;1.70;;;;;;;26.97;30.54;100154.09;5093285;28;20051;-76
2022/06/11 11:36:20;;;;;;;4.78;1.58;;;;;;;26.91;32.49;100158.25;5093313;28;20031;-76
2022/06/11 11:39:01;;;;;;;2.38;1.40;;;;;;;26.89;32.03;100162.13;5093209;28;20059;-76
2022/06/11 11:41:33;;;;;;;2.72;1.60;;;;;;;26.81;30.69;100169.09;5092772;28;20020;-76
2022/06/11 11:43:59;;;;;;;3.95;1.58;;;;;;;26.78;30.32;100165.94;5093068;28;20161;-76
2022/06/11 11:46:31;;;;;;;2.47;1.55;;;;;;;26.72;30.92;100156.75;5092755;28;20107;-76